createdAt,value
2023-05-01T00:00:53.972Z,97445.50
2023-05-01T00:03:39.581Z,97445.50
2023-05-01T00:06:26.203Z,97441.25
2023-05-01T00:09:11.913Z,97443.88
2023-05-01T00:11:57.439Z,97435.56
2023-05-01T00:14:42.965Z,97435.97
2023-05-01T00:17:29.135Z,97432.28
2023-05-01T00:20:14.798Z,97423.34
2023-05-01T00:23:00.142Z,97425.09
2023-05-01T00:25:45.578Z,97423.22
2023-05-01T00:28:31.378Z,97416.28
2023-05-01T00:31:18.511Z,97418.66
2023-05-01T00:34:05.192Z,97415.41
2023-05-01T00:36:51.502Z,97418.22
2023-05-01T00:39:37.166Z,97413.34
2023-05-01T00:42:22.650Z,97406.84
2023-05-01T00:45:08.950Z,97419.34
2023-05-01T00:47:54.433Z,97415.84
2023-05-01T00:50:41.094Z,97409.47
2023-05-01T00:53:28.342Z,97407.56
2023-05-01T00:56:15.069Z,97397.19
2023-05-01T00:59:01.251Z,97403.63
2023-05-01T01:01:47.383Z,97397.13
2023-05-01T01:04:34.537Z,97398.28
2023-05-01T01:07:40.063Z,97393.44
2023-05-01T01:10:41.014Z,97392.00
2023-05-01T01:13:32.487Z,97388.53
2023-05-01T01:16:45.413Z,97387.91
2023-05-01T01:19:43.081Z,97386.84
2023-05-01T01:22:29.922Z,97388.13
2023-05-01T01:25:28.130Z,97381.44
2023-05-01T01:28:14.012Z,97388.69
2023-05-01T01:31:14.693Z,97384.41
2023-05-01T01:34:24.926Z,97381.63
2023-05-01T01:37:17.555Z,97370.13
2023-05-01T01:40:17.309Z,97371.75
2023-05-01T01:43:07.761Z,97372.59
2023-05-01T01:45:59.496Z,97371.75
2023-05-01T01:48:49.023Z,97363.53
2023-05-01T01:51:37.983Z,97363.34
2023-05-01T01:54:33.085Z,97357.31
2023-05-01T01:57:20.975Z,97357.47
2023-05-01T02:00:11.182Z,97359.28
2023-05-01T02:03:03.714Z,97356.03
2023-05-01T02:05:52.272Z,97348.34
2023-05-01T02:08:38.434Z,97345.91
2023-05-01T02:11:25.222Z,97347.56
2023-05-01T02:14:13.407Z,97336.69
2023-05-01T02:16:59.800Z,97335.69
2023-05-01T02:19:46.653Z,97326.81
2023-05-01T02:22:33.685Z,97320.94
2023-05-01T02:25:19.292Z,97321.78
2023-05-01T02:28:12.278Z,97324.56
2023-05-01T02:30:59.168Z,97310.84
2023-05-01T02:33:46.587Z,97315.25
2023-05-01T02:36:33.589Z,97318.72
2023-05-01T02:39:19.098Z,97315.25
2023-05-01T02:42:06.292Z,97312.84
2023-05-01T02:45:02.486Z,97313.03
2023-05-01T02:47:53.002Z,97306.16
2023-05-01T02:50:41.133Z,97303.09
2023-05-01T02:53:27.122Z,97308.06
2023-05-01T02:56:19.530Z,97300.56
2023-05-01T02:59:05.164Z,97297.69
2023-05-01T03:01:50.574Z,97297.06
2023-05-01T03:04:36.097Z,97292.00
2023-05-01T03:07:21.626Z,97295.41
2023-05-01T03:10:07.961Z,97290.38
2023-05-01T03:12:53.261Z,97293.97
2023-05-01T03:15:39.175Z,97287.31
2023-05-01T03:18:24.919Z,97284.06
2023-05-01T03:21:12.648Z,97281.63
2023-05-01T03:23:58.231Z,97278.53
2023-05-01T03:26:43.715Z,97283.00
2023-05-01T03:29:29.415Z,97279.53
2023-05-01T03:32:16.507Z,97278.75
2023-05-01T03:35:03.869Z,97271.25
2023-05-01T03:37:49.707Z,97274.88
2023-05-01T03:40:55.463Z,97273.44
2023-05-01T03:43:59.766Z,97274.41
2023-05-01T03:46:55.804Z,97271.81
2023-05-01T03:49:45.392Z,97267.38
2023-05-01T03:52:31.212Z,97263.84
2023-05-01T03:55:16.853Z,97267.38
2023-05-01T03:58:05.077Z,97265.75
2023-05-01T04:00:51.114Z,97258.53
2023-05-01T04:03:37.532Z,97260.16
2023-05-01T04:06:23.616Z,97257.34
2023-05-01T04:09:09.099Z,97254.56
2023-05-01T04:11:54.559Z,97256.19
2023-05-01T04:14:39.959Z,97255.00
2023-05-01T04:17:25.970Z,97259.78
2023-05-01T04:20:11.395Z,97253.09
2023-05-01T04:22:57.678Z,97253.38
2023-05-01T04:25:43.200Z,97256.69
2023-05-01T04:28:32.681Z,97247.94
2023-05-01T04:31:18.999Z,97260.09
2023-05-01T04:34:04.932Z,97254.38
2023-05-01T04:36:51.895Z,97254.50
2023-05-01T04:39:38.157Z,97249.41
2023-05-01T04:42:23.873Z,97257.41
2023-05-01T04:45:10.321Z,97259.16
2023-05-01T04:47:55.802Z,97254.00
2023-05-01T04:50:41.024Z,97250.50
2023-05-01T04:53:26.939Z,97251.41
2023-05-01T04:56:12.558Z,97251.09
2023-05-01T04:58:58.705Z,97251.78
2023-05-01T05:01:46.126Z,97260.59
2023-05-01T05:04:32.035Z,97253.81
2023-05-01T05:07:17.409Z,97251.06
2023-05-01T05:10:32.088Z,97245.25
2023-05-01T05:13:36.487Z,97247.50
2023-05-01T05:16:28.887Z,97245.13
2023-05-01T05:19:16.333Z,97239.44
2023-05-01T05:22:03.221Z,97247.94
2023-05-01T05:25:04.437Z,97232.91
2023-05-01T05:27:49.953Z,97232.06
2023-05-01T05:30:35.518Z,97231.56
2023-05-01T05:33:25.016Z,97224.00
2023-05-01T05:36:11.436Z,97223.91
2023-05-01T05:38:59.784Z,97232.50
2023-05-01T05:41:45.303Z,97228.34
2023-05-01T05:44:33.046Z,97233.69
2023-05-01T05:47:18.877Z,97233.50
2023-05-01T05:50:04.532Z,97229.09
2023-05-01T05:52:51.643Z,97230.13
2023-05-01T05:55:37.578Z,97223.69
2023-05-01T05:58:25.316Z,97222.75
2023-05-01T06:01:11.694Z,97225.06
2023-05-01T06:03:58.407Z,97224.44
2023-05-01T06:06:45.817Z,97215.66
2023-05-01T06:09:31.267Z,97220.31
2023-05-01T06:12:17.010Z,97215.00
2023-05-01T06:15:03.516Z,97203.50
2023-05-01T06:17:49.849Z,97204.47
2023-05-01T06:20:35.434Z,97212.31
2023-05-01T06:23:20.815Z,97204.13
2023-05-01T06:26:32.993Z,97200.19
2023-05-01T06:29:18.514Z,97198.00
2023-05-01T06:32:04.403Z,97198.44
2023-05-01T06:34:50.693Z,97192.31
2023-05-01T06:37:38.587Z,97192.78
2023-05-01T06:40:26.189Z,97194.97
2023-05-01T06:43:11.591Z,97188.41
2023-05-01T06:45:57.554Z,97188.50
2023-05-01T06:48:43.917Z,97193.19
2023-05-01T06:51:32.287Z,97183.81
2023-05-01T06:54:17.974Z,97191.38
2023-05-01T06:57:03.256Z,97197.44
2023-05-01T06:59:48.525Z,97190.41
2023-05-01T07:02:35.248Z,97189.69
2023-05-01T07:05:21.088Z,97186.31
2023-05-01T07:08:07.173Z,97189.41
2023-05-01T07:10:53.974Z,97192.78
2023-05-01T07:13:39.739Z,97192.72
2023-05-01T07:16:25.487Z,97194.25
2023-05-01T07:19:11.972Z,97186.75
2023-05-01T07:21:59.947Z,97180.47
2023-05-01T07:24:45.573Z,97181.03
2023-05-01T07:27:31.754Z,97173.63
2023-05-01T07:30:17.020Z,97169.47
2023-05-01T07:33:03.064Z,97165.03
2023-05-01T07:35:48.799Z,97157.97
2023-05-01T07:38:35.030Z,97153.31
2023-05-01T07:41:21.788Z,97146.44
2023-05-01T07:44:07.258Z,97144.34
2023-05-01T07:46:52.534Z,97141.47
2023-05-01T07:49:38.676Z,97139.69
2023-05-01T07:52:24.159Z,97132.88
2023-05-01T07:55:10.312Z,97135.88
2023-05-01T07:57:56.118Z,97129.88
2023-05-01T08:00:41.679Z,97129.50
2023-05-01T08:03:31.086Z,97121.88
2023-05-01T08:06:16.675Z,97128.00
2023-05-01T08:09:02.095Z,97125.34
2023-05-01T08:11:47.824Z,97122.72
2023-05-01T08:14:34.991Z,97116.59
2023-05-01T08:17:21.148Z,97111.72
2023-05-01T08:20:07.993Z,97112.28
2023-05-01T08:22:53.291Z,97116.09
2023-05-01T08:25:38.729Z,97112.09
2023-05-01T08:28:24.494Z,97111.31
2023-05-01T08:31:10.438Z,97109.72
2023-05-01T08:33:55.847Z,97107.66
2023-05-01T08:36:41.676Z,97103.66
2023-05-01T08:39:28.772Z,97107.97
2023-05-01T08:42:14.604Z,97108.03
2023-05-01T08:45:01.681Z,97113.66
2023-05-01T08:47:49.523Z,97110.78
2023-05-01T08:50:37.047Z,97105.47
2023-05-01T08:53:24.176Z,97107.66
2023-05-01T08:56:13.758Z,97113.81
2023-05-01T08:59:03.331Z,97106.88
2023-05-01T09:01:50.449Z,97099.19
2023-05-01T09:04:41.106Z,97094.97
2023-05-01T09:07:26.995Z,97101.47
2023-05-01T09:10:14.156Z,97099.66
2023-05-01T09:13:07.060Z,97092.53
2023-05-01T09:15:52.730Z,97092.06
2023-05-01T09:18:41.054Z,97081.72
2023-05-01T09:21:29.179Z,97089.50
2023-05-01T09:24:14.535Z,97075.63
2023-05-01T09:26:59.973Z,97083.13
2023-05-01T09:29:47.978Z,97077.81
2023-05-01T09:32:34.342Z,97074.63
2023-05-01T09:35:19.986Z,97075.19
2023-05-01T09:38:05.521Z,97066.16
2023-05-01T09:40:53.927Z,97070.97
2023-05-01T09:43:39.819Z,97068.03
2023-05-01T09:46:26.735Z,97069.38
2023-05-01T09:49:12.943Z,97063.75
2023-05-01T09:52:11.498Z,97058.97
2023-05-01T09:55:13.945Z,97047.00
2023-05-01T09:57:59.494Z,97054.47
2023-05-01T10:00:49.642Z,97059.84
2023-05-01T10:03:35.314Z,97054.75
2023-05-01T10:06:28.711Z,97053.38
2023-05-01T10:09:27.990Z,97049.63
2023-05-01T10:12:24.236Z,97033.00
2023-05-01T10:15:23.786Z,97021.22
2023-05-01T10:18:12.104Z,97037.78
2023-05-01T10:20:57.973Z,97035.13
2023-05-01T10:23:43.727Z,97017.47
2023-05-01T10:26:29.147Z,97012.91
2023-05-01T10:29:15.318Z,97015.56
2023-05-01T10:32:06.975Z,97010.41
2023-05-01T10:34:58.030Z,97001.81
2023-05-01T10:37:49.181Z,96996.91
2023-05-01T10:40:41.252Z,96993.66
2023-05-01T10:43:31.278Z,96983.75
2023-05-01T10:46:19.003Z,96994.13
2023-05-01T10:49:04.976Z,96998.34
2023-05-01T10:52:02.574Z,96985.94
2023-05-01T10:54:48.054Z,96989.00
2023-05-01T10:57:46.425Z,96984.13
2023-05-01T11:00:34.232Z,96980.53
2023-05-01T11:03:23.129Z,96963.50
2023-05-01T11:06:08.836Z,96962.50
2023-05-01T11:08:55.065Z,96959.84
2023-05-01T11:11:40.491Z,96963.13
2023-05-01T11:14:26.032Z,96958.50
2023-05-01T11:17:11.457Z,96954.22
2023-05-01T11:19:56.860Z,96952.06
2023-05-01T11:22:48.554Z,96947.63
2023-05-01T11:25:34.226Z,96945.56
2023-05-01T11:28:21.561Z,96951.28
2023-05-01T11:31:07.171Z,96942.28
2023-05-01T11:33:55.848Z,96943.75
2023-05-01T11:36:51.921Z,96943.97
2023-05-01T11:39:37.836Z,96935.81
2023-05-01T11:42:23.123Z,96939.72
2023-05-01T11:45:12.563Z,96937.03
2023-05-01T11:48:00.563Z,96939.47
2023-05-01T11:50:48.228Z,96940.88
2023-05-01T11:53:33.530Z,96936.72
2023-05-01T11:56:27.058Z,96928.84
2023-05-01T11:59:17.997Z,96934.78
2023-05-01T12:02:03.594Z,96934.16
2023-05-01T12:04:49.516Z,96929.19
2023-05-01T12:07:37.574Z,96930.22
2023-05-01T12:10:23.471Z,96931.81
2023-05-01T12:13:10.836Z,96932.78
2023-05-01T12:15:56.964Z,96926.03
2023-05-01T12:18:43.260Z,96926.03
2023-05-01T12:21:28.765Z,96922.94
2023-05-01T12:24:16.974Z,96912.38
2023-05-01T12:27:03.654Z,96917.66
2023-05-01T12:29:49.621Z,96907.41
2023-05-01T12:32:35.404Z,96911.50
2023-05-01T12:35:21.386Z,96902.31
2023-05-01T12:38:21.298Z,96903.06
2023-05-01T12:41:09.518Z,96895.78
2023-05-01T12:43:54.854Z,96897.38
2023-05-01T12:46:40.337Z,96898.28
2023-05-01T12:49:27.320Z,96891.66
2023-05-01T12:52:12.961Z,96896.75
2023-05-01T12:55:06.305Z,96879.19
2023-05-01T12:57:53.867Z,96879.78
2023-05-01T13:00:53.089Z,96869.66
2023-05-01T13:03:43.370Z,96870.44
2023-05-01T13:06:36.341Z,96873.34
2023-05-01T13:09:32.813Z,96869.47
2023-05-01T13:12:18.658Z,96869.97
2023-05-01T13:15:04.543Z,96871.63
2023-05-01T13:17:50.653Z,96866.66
2023-05-01T13:20:39.063Z,96866.03
2023-05-01T13:23:24.479Z,96865.31
2023-05-01T13:26:13.116Z,96863.81
2023-05-01T13:29:00.157Z,96861.53
2023-05-01T13:31:46.129Z,96859.53
2023-05-01T13:34:33.657Z,96858.03
2023-05-01T13:37:19.261Z,96861.88
2023-05-01T13:40:05.296Z,96862.69
2023-05-01T13:42:53.246Z,96856.44
2023-05-01T13:45:38.644Z,96856.84
2023-05-01T13:48:24.855Z,96862.13
2023-05-01T13:51:12.873Z,96860.66
2023-05-01T13:53:58.586Z,96861.25
2023-05-01T13:56:44.049Z,96856.50
2023-05-01T13:59:40.459Z,96852.91
2023-05-01T14:02:30.036Z,96849.03
2023-05-01T14:05:16.332Z,96849.75
2023-05-01T14:08:02.306Z,96848.94
2023-05-01T14:10:48.473Z,96845.75
2023-05-01T14:13:36.218Z,96846.34
2023-05-01T14:16:27.209Z,96847.31
2023-05-01T14:19:16.150Z,96836.56
2023-05-01T14:22:01.616Z,96840.84
2023-05-01T14:24:47.043Z,96839.78
2023-05-01T14:27:33.542Z,96836.88
2023-05-01T14:30:33.760Z,96834.81
2023-05-01T14:33:19.665Z,96837.78
2023-05-01T14:36:05.323Z,96836.00
2023-05-01T14:38:51.808Z,96833.97
2023-05-01T14:41:42.323Z,96835.75
2023-05-01T14:44:30.511Z,96834.06
2023-05-01T14:47:21.759Z,96833.38
2023-05-01T14:50:07.720Z,96842.31
2023-05-01T14:52:57.823Z,96839.44
2023-05-01T14:55:43.677Z,96839.22
2023-05-01T14:58:29.421Z,96836.63
2023-05-01T15:01:15.222Z,96834.31
2023-05-01T15:04:03.426Z,96841.16
2023-05-01T15:06:50.182Z,96835.88
2023-05-01T15:09:35.781Z,96841.03
2023-05-01T15:12:21.335Z,96838.44
2023-05-01T15:15:07.336Z,96832.34
2023-05-01T15:17:53.000Z,96834.84
2023-05-01T15:20:38.193Z,96835.41
2023-05-01T15:23:25.116Z,96828.25
2023-05-01T15:26:11.068Z,96836.88
2023-05-01T15:28:56.466Z,96830.50
2023-05-01T15:31:42.399Z,96831.88
2023-05-01T15:34:28.757Z,96831.13
2023-05-01T15:37:14.377Z,96821.56
2023-05-01T15:40:00.155Z,96818.44
2023-05-01T15:42:48.083Z,96823.91
2023-05-01T15:45:33.745Z,96827.75
2023-05-01T15:48:19.552Z,96824.06
2023-05-01T15:51:05.043Z,96822.25
2023-05-01T15:53:50.447Z,96827.38
2023-05-01T15:56:37.311Z,96829.03
2023-05-01T15:59:22.874Z,96824.56
2023-05-01T16:02:08.955Z,96825.94
2023-05-01T16:04:54.488Z,96829.69
2023-05-01T16:07:40.360Z,96834.03
2023-05-01T16:10:25.853Z,96831.41
2023-05-01T16:13:11.371Z,96833.09
2023-05-01T16:15:57.175Z,96827.81
2023-05-01T16:18:42.938Z,96828.91
2023-05-01T16:21:28.778Z,96836.25
2023-05-01T16:24:14.926Z,96829.06
2023-05-01T16:27:00.970Z,96837.94
2023-05-01T16:29:46.653Z,96828.38
2023-05-01T16:32:32.192Z,96836.16
2023-05-01T16:35:18.439Z,96839.97
2023-05-01T16:38:05.190Z,96836.56
2023-05-01T16:40:50.710Z,96831.53
2023-05-01T16:43:36.243Z,96827.84
2023-05-01T16:46:22.182Z,96835.13
2023-05-01T16:49:11.442Z,96834.34
2023-05-01T16:51:58.304Z,96840.63
2023-05-01T16:54:44.245Z,96840.97
2023-05-01T16:57:29.566Z,96845.06
2023-05-01T17:00:16.471Z,96843.50
2023-05-01T17:03:02.258Z,96842.44
2023-05-01T17:05:47.916Z,96843.28
2023-05-01T17:08:33.499Z,96846.28
2023-05-01T17:11:19.060Z,96846.63
2023-05-01T17:14:04.631Z,96847.22
2023-05-01T17:16:50.598Z,96851.00
2023-05-01T17:19:39.003Z,96858.50
2023-05-01T17:22:25.492Z,96853.19
2023-05-01T17:25:12.355Z,96851.63
2023-05-01T17:27:59.166Z,96847.41
2023-05-01T17:30:44.876Z,96857.31
2023-05-01T17:33:31.137Z,96855.22
2023-05-01T17:36:16.836Z,96866.78
2023-05-01T17:39:02.339Z,96862.59
2023-05-01T17:41:49.415Z,96866.66
2023-05-01T17:44:35.279Z,96871.78
2023-05-01T17:47:21.666Z,96880.06
2023-05-01T17:50:13.060Z,96888.09
2023-05-01T17:52:58.978Z,96888.63
2023-05-01T17:55:44.368Z,96894.78
2023-05-01T17:58:29.853Z,96893.16
2023-05-01T18:01:15.642Z,96898.75
2023-05-01T18:04:01.850Z,96903.31
2023-05-01T18:06:47.403Z,96896.38
2023-05-01T18:09:33.160Z,96906.22
2023-05-01T18:12:19.138Z,96904.88
2023-05-01T18:15:04.633Z,96910.72
2023-05-01T18:17:50.740Z,96902.16
2023-05-01T18:20:36.687Z,96905.09
2023-05-01T18:23:21.934Z,96910.66
2023-05-01T18:26:08.261Z,96914.38
2023-05-01T18:28:54.390Z,96910.09
2023-05-01T18:31:40.184Z,96918.06
2023-05-01T18:34:25.694Z,96916.16
2023-05-01T18:37:10.951Z,96925.97
2023-05-01T18:39:56.856Z,96920.88
2023-05-01T18:42:43.594Z,96929.16
2023-05-01T18:45:28.989Z,96925.38
2023-05-01T18:48:14.599Z,96930.44
2023-05-01T18:51:08.398Z,96932.81
2023-05-01T18:53:54.764Z,96935.72
2023-05-01T18:56:40.062Z,96943.16
2023-05-01T18:59:30.852Z,96949.81
2023-05-01T19:02:16.423Z,96957.81
2023-05-01T19:05:02.245Z,96957.00
2023-05-01T19:07:48.366Z,96956.19
2023-05-01T19:10:35.463Z,96960.47
2023-05-01T19:13:23.556Z,96967.66
2023-05-01T19:16:09.133Z,96972.19
2023-05-01T19:18:54.976Z,96975.38
2023-05-01T19:21:40.247Z,96972.41
2023-05-01T19:24:25.754Z,96969.47
2023-05-01T19:27:11.708Z,96986.19
2023-05-01T19:30:00.772Z,96986.97
2023-05-01T19:32:47.457Z,96992.81
2023-05-01T19:35:32.823Z,96995.97
2023-05-01T19:38:18.417Z,96994.88
2023-05-01T19:41:04.093Z,96990.06
2023-05-01T19:43:49.367Z,96997.50
2023-05-01T19:46:34.871Z,96996.69
2023-05-01T19:49:20.297Z,96999.63
2023-05-01T19:52:06.378Z,97000.44
2023-05-01T19:54:52.301Z,97008.66
2023-05-01T19:57:37.652Z,97009.69
2023-05-01T20:00:23.121Z,97009.69
2023-05-01T20:03:09.497Z,97017.16
2023-05-01T20:05:55.666Z,97020.31
2023-05-01T20:08:41.883Z,97017.13
2023-05-01T20:11:27.771Z,97022.16
2023-05-01T20:14:13.654Z,97025.84
2023-05-01T20:16:59.065Z,97025.03
2023-05-01T20:19:44.993Z,97026.91
2023-05-01T20:22:30.387Z,97030.63
2023-05-01T20:25:15.782Z,97029.75
2023-05-01T20:28:03.390Z,97030.00
2023-05-01T20:30:49.176Z,97033.97
2023-05-01T20:33:34.930Z,97033.69
2023-05-01T20:36:20.554Z,97039.53
2023-05-01T20:39:06.112Z,97039.75
2023-05-01T20:41:51.789Z,97036.25
2023-05-01T20:44:37.311Z,97041.28
2023-05-01T20:47:23.200Z,97043.63
2023-05-01T20:50:09.212Z,97042.50
2023-05-01T20:52:56.326Z,97043.00
2023-05-01T20:55:41.975Z,97044.56
2023-05-01T20:58:27.702Z,97052.25
2023-05-01T21:01:13.087Z,97049.00
2023-05-01T21:04:01.575Z,97049.50
2023-05-01T21:06:47.567Z,97050.56
2023-05-01T21:09:33.628Z,97058.22
2023-05-01T21:12:19.323Z,97065.63
2023-05-01T21:15:05.623Z,97066.41
2023-05-01T21:17:51.119Z,97065.63
2023-05-01T21:20:36.570Z,97065.94
2023-05-01T21:23:26.301Z,97073.34
2023-05-01T21:26:14.070Z,97073.34
2023-05-01T21:28:59.573Z,97070.44
2023-05-01T21:31:45.404Z,97082.69
2023-05-01T21:34:31.197Z,97080.28
2023-05-01T21:37:18.695Z,97078.66
2023-05-01T21:40:09.098Z,97080.78
2023-05-01T21:42:55.213Z,97083.66
2023-05-01T21:45:44.449Z,97085.53
2023-05-01T21:48:34.327Z,97087.63
2023-05-01T21:51:28.549Z,97086.84
2023-05-01T21:54:18.359Z,97088.66
2023-05-01T21:57:07.712Z,97093.44
2023-05-01T21:59:56.670Z,97094.50
2023-05-01T22:02:44.822Z,97092.88
2023-05-01T22:05:32.060Z,97097.63
2023-05-01T22:08:17.648Z,97102.94
2023-05-01T22:11:04.129Z,97102.16
2023-05-01T22:13:50.450Z,97104.00
2023-05-01T22:16:35.808Z,97113.03
2023-05-01T22:19:20.996Z,97099.97
2023-05-01T22:22:06.474Z,97118.03
2023-05-01T22:24:51.851Z,97117.22
2023-05-01T22:27:37.578Z,97127.53
2023-05-01T22:30:23.201Z,97122.94
2023-05-01T22:33:08.977Z,97127.41
2023-05-01T22:35:55.054Z,97126.25
2023-05-01T22:38:40.659Z,97135.00
2023-05-01T22:41:26.818Z,97137.31
2023-05-01T22:44:12.317Z,97136.69
2023-05-01T22:46:59.514Z,97132.34
2023-05-01T22:49:44.972Z,97131.44
2023-05-01T22:52:30.713Z,97135.38
2023-05-01T22:55:16.516Z,97129.19
2023-05-01T22:58:02.294Z,97135.00
2023-05-01T23:00:47.946Z,97134.66
2023-05-01T23:03:35.696Z,97131.69
2023-05-01T23:06:22.705Z,97136.09
2023-05-01T23:09:08.528Z,97128.28
2023-05-01T23:11:54.239Z,97135.34
2023-05-01T23:14:45.273Z,97125.44
2023-05-01T23:17:34.693Z,97136.56
2023-05-01T23:20:22.853Z,97148.22
2023-05-01T23:23:13.848Z,97136.22
2023-05-01T23:25:59.399Z,97143.63
2023-05-01T23:28:45.343Z,97144.09
2023-05-01T23:31:30.873Z,97154.38
2023-05-01T23:34:17.508Z,97153.22
2023-05-01T23:37:03.568Z,97149.47
2023-05-01T23:39:49.405Z,97148.31
2023-05-01T23:42:36.968Z,97144.75
2023-05-01T23:45:22.603Z,97137.75
2023-05-01T23:48:08.001Z,97146.06
2023-05-01T23:50:53.674Z,97141.34
2023-05-01T23:53:39.116Z,97136.19
2023-05-01T23:56:24.428Z,97142.44
2023-05-01T23:59:09.979Z,97134.59
